Time,TemperatureF,DewpointF,PressureIn,WindDirection,WindDirectionDegrees,WindSpeedMPH,WindSpeedGustMPH,Humidity,HourlyPrecipIn,Conditions,Clouds,dailyrainin,SoftwareType,DateUTC
2013-03-07 00:00:00,11.9,8.5,30.49,NNW,338,0.0,0.0,86,0.00,,,0.00,Wunderground v.1.15,2013-03-07 06:00:00,
2013-03-07 00:05:00,11.5,8.1,30.49,NNW,338,0.0,0.0,86,0.00,,,0.00,Wunderground v.1.15,2013-03-07 06:05:00,
2013-03-07 00:10:00,10.9,7.5,30.49,NNW,338,0.0,0.0,86,0.00,,,0.00,Wunderground v.1.15,2013-03-07 06:10:00,
2013-03-07 00:20:00,10.7,7.3,30.49,NNW,338,0.0,0.0,86,0.00,,,0.00,Wunderground v.1.15,2013-03-07 06:20:00,
2013-03-07 00:25:00,10.9,7.8,30.49,NNW,338,0.0,0.0,87,0.00,,,0.00,Wunderground v.1.15,2013-03-07 06:25:00,
2013-03-07 00:30:00,11.1,8.0,30.49,NNW,339,0.0,0.0,87,0.00,,,0.00,Wunderground v.1.15,2013-03-07 06:30:00,
2013-03-07 00:40:00,11.3,8.2,30.48,NNW,338,0.0,0.0,87,0.00,,,0.00,Wunderground v.1.15,2013-03-07 06:40:00,
2013-03-07 00:45:00,11.4,8.3,30.48,NNW,338,0.0,0.0,87,0.00,,,0.00,Wunderground v.1.15,2013-03-07 06:45:00,
2013-03-07 00:55:00,11.4,8.3,30.47,NNW,338,0.0,0.0,87,0.00,,,0.00,Wunderground v.1.15,2013-03-07 06:55:00,
2013-03-07 01:00:00,11.4,8.0,30.48,NNW,338,0.0,0.0,86,0.00,,,0.00,Wunderground v.1.15,2013-03-07 07:00:00,
2013-03-07 01:05:00,11.3,7.9,30.48,NNW,338,0.0,0.0,86,0.00,,,0.00,Wunderground v.1.15,2013-03-07 07:05:00,
2013-03-07 01:15:00,10.7,7.1,30.48,NNW,338,0.0,0.0,85,0.00,,,0.00,Wunderground v.1.15,2013-03-07 07:15:00,
2013-03-07 01:20:00,10.3,6.4,30.48,NNW,338,0.0,0.0,84,0.00,,,0.00,Wunderground v.1.15,2013-03-07 07:20:00,
2013-03-07 01:25:00,9.9,6.0,30.48,NNW,338,0.0,0.0,84,0.00,,,0.00,Wunderground v.1.15,2013-03-07 07:25:00,
2013-03-07 01:30:00,9.7,6.1,30.48,NNW,338,0.0,0.0,85,0.00,,,0.00,Wunderground v.1.15,2013-03-07 07:30:00,
2013-03-07 01:40:00,9.8,6.2,30.49,NNW,338,0.0,0.0,85,0.00,,,0.00,Wunderground v.1.15,2013-03-07 07:40:00,
2013-03-07 01:45:00,9.4,5.5,30.49,NNW,338,0.0,0.0,84,0.00,,,0.00,Wunderground v.1.15,2013-03-07 07:45:00,
2013-03-07 01:55:00,8.8,5.0,30.49,NNW,338,0.0,0.0,84,0.00,,,0.00,Wunderground v.1.15,2013-03-07 07:55:00,
2013-03-07 02:05:00,8.2,4.4,30.49,NNW,338,0.0,0.0,84,0.00,,,0.00,Wunderground v.1.15,2013-03-07 08:05:00,
2013-03-07 02:15:00,7.8,4.0,30.49,NNW,338,0.0,0.0,84,0.00,,,0.00,Wunderground v.1.15,2013-03-07 08:15:00,
2013-03-07 02:20:00,7.7,3.9,30.50,NNW,338,0.0,0.0,84,0.00,,,0.00,Wunderground v.1.15,2013-03-07 08:20:00,
2013-03-07 02:30:00,7.6,3.8,30.50,NNW,338,0.0,0.0,84,0.00,,,0.00,Wunderground v.1.15,2013-03-07 08:30:00,
2013-03-07 02:35:00,6.9,3.1,30.49,NNW,338,0.0,0.0,84,0.00,,,0.00,Wunderground v.1.15,2013-03-07 08:35:00,
2013-03-07 02:40:00,6.6,2.5,30.49,NNW,338,0.0,0.0,83,0.00,,,0.00,Wunderground v.1.15,2013-03-07 08:40:00,
2013-03-07 02:50:00,6.2,2.4,30.49,NNW,338,0.0,0.0,84,0.00,,,0.00,Wunderground v.1.15,2013-03-07 08:50:00,
2013-03-07 02:55:00,6.3,2.8,30.49,NNW,338,0.0,0.0,85,0.00,,,0.00,Wunderground v.1.15,2013-03-07 08:55:00,
2013-03-07 03:05:00,6.5,3.0,30.49,NNW,338,0.0,0.0,85,0.00,,,0.00,Wunderground v.1.15,2013-03-07 09:05:00,
2013-03-07 03:15:00,6.2,2.4,30.48,NNW,338,0.0,0.0,84,0.00,,,0.00,Wunderground v.1.15,2013-03-07 09:15:00,
2013-03-07 03:20:00,6.0,2.2,30.49,NNW,338,0.0,0.0,84,0.00,,,0.00,Wunderground v.1.15,2013-03-07 09:20:00,
2013-03-07 03:30:00,5.8,2.0,30.48,NNW,338,0.0,0.0,84,0.00,,,0.00,Wunderground v.1.15,2013-03-07 09:30:00,
2013-03-07 03:35:00,5.9,2.4,30.48,NNW,338,0.0,0.0,85,0.00,,,0.00,Wunderground v.1.15,2013-03-07 09:35:00,
2013-03-07 03:48:00,6.0,2.2,30.48,NNW,338,0.0,0.0,84,0.00,,,0.00,Wunderground v.1.15,2013-03-07 09:48:00,
2013-03-07 03:55:00,5.8,2.0,30.49,NNW,338,0.0,0.0,84,0.00,,,0.00,Wunderground v.1.15,2013-03-07 09:55:00,
2013-03-07 04:00:00,5.7,2.2,30.49,NNW,338,0.0,0.0,85,0.00,,,0.00,Wunderground v.1.15,2013-03-07 10:00:00,
2013-03-07 04:05:00,5.8,2.3,30.49,NNW,338,0.0,0.0,85,0.00,,,0.00,Wunderground v.1.15,2013-03-07 10:05:00,
2013-03-07 04:15:00,6.0,2.5,30.49,NNW,338,0.0,0.0,85,0.00,,,0.00,Wunderground v.1.15,2013-03-07 10:15:00,
2013-03-07 04:21:00,6.2,2.7,30.49,NNW,338,0.0,0.0,85,0.00,,,0.00,Wunderground v.1.15,2013-03-07 10:21:00,
2013-03-07 04:30:00,6.2,2.7,30.49,NNW,338,0.0,0.0,85,0.00,,,0.00,Wunderground v.1.15,2013-03-07 10:30:00,
2013-03-07 04:40:00,6.4,2.9,30.49,NNW,338,0.0,0.0,85,0.00,,,0.00,Wunderground v.1.15,2013-03-07 10:40:00,
2013-03-07 04:45:00,6.5,3.0,30.49,NNW,338,0.0,0.0,85,0.00,,,0.00,Wunderground v.1.15,2013-03-07 10:45:00,
2013-03-07 04:55:00,6.3,2.8,30.49,NNW,338,0.0,0.0,85,0.00,,,0.00,Wunderground v.1.15,2013-03-07 10:55:00,
2013-03-07 05:00:00,6.3,2.8,30.49,NNW,338,0.0,0.0,85,0.00,,,0.00,Wunderground v.1.15,2013-03-07 11:00:00,
2013-03-07 05:05:00,6.3,2.8,30.49,NNW,338,0.0,0.0,85,0.00,,,0.00,Wunderground v.1.15,2013-03-07 11:05:00,
2013-03-07 05:15:00,5.9,2.4,30.48,NNW,338,0.0,0.0,85,0.00,,,0.00,Wunderground v.1.15,2013-03-07 11:15:00,
2013-03-07 05:20:00,6.0,2.5,30.48,NNW,338,0.0,0.0,85,0.00,,,0.00,Wunderground v.1.15,2013-03-07 11:20:00,
2013-03-07 05:30:00,6.4,3.1,30.48,NNW,338,0.0,0.0,86,0.00,,,0.00,Wunderground v.1.15,2013-03-07 11:30:00,
2013-03-07 05:35:00,6.6,3.3,30.48,NNW,338,0.0,0.0,86,0.00,,,0.00,Wunderground v.1.15,2013-03-07 11:35:00,
2013-03-07 05:45:00,6.6,3.0,30.49,NNW,338,0.0,0.0,85,0.00,,,0.00,Wunderground v.1.15,2013-03-07 11:45:00,
2013-03-07 05:50:00,6.5,3.0,30.49,NNW,338,0.0,0.0,85,0.00,,,0.00,Wunderground v.1.15,2013-03-07 11:50:00,
2013-03-07 06:00:00,6.4,2.9,30.49,NNW,338,0.0,0.0,85,0.00,,,0.00,Wunderground v.1.15,2013-03-07 12:00:00,
2013-03-07 06:05:00,6.3,2.8,30.49,NNW,338,0.0,0.0,85,0.00,,,0.00,Wunderground v.1.15,2013-03-07 12:05:00,
2013-03-07 06:15:00,6.2,2.7,30.49,NNW,338,0.0,0.0,85,0.00,,,0.00,Wunderground v.1.15,2013-03-07 12:15:00,
2013-03-07 06:20:00,6.3,2.8,30.49,NNW,338,0.0,0.0,85,0.00,,,0.00,Wunderground v.1.15,2013-03-07 12:20:00,
2013-03-07 06:25:00,6.4,2.9,30.49,NNW,338,0.0,0.0,85,0.00,,,0.00,Wunderground v.1.15,2013-03-07 12:25:00,
2013-03-07 06:30:00,6.6,3.0,30.49,NNW,338,0.0,0.0,85,0.00,,,0.00,Wunderground v.1.15,2013-03-07 12:30:00,
2013-03-07 06:36:00,6.8,3.2,30.49,NNW,338,0.0,0.0,85,0.00,,,0.00,Wunderground v.1.15,2013-03-07 12:36:00,
2013-03-07 06:44:00,7.1,3.8,30.49,ENE,75,0.0,0.0,86,0.00,,,0.00,Wunderground v.1.15,2013-03-07 12:44:00,
2013-03-07 06:50:00,8.0,5.4,30.49,East,81,0.0,0.0,89,0.00,,,0.00,Wunderground v.1.15,2013-03-07 12:50:00,
2013-03-07 06:55:00,8.7,6.1,30.48,East,89,1.0,2.0,89,0.00,,,0.00,Wunderground v.1.15,2013-03-07 12:55:00,
2013-03-07 07:00:00,9.9,7.8,30.48,ENE,60,2.0,3.0,91,0.00,,,0.00,Wunderground v.1.15,2013-03-07 13:00:00,
2013-03-07 07:05:00,10.4,8.3,30.48,ENE,68,3.0,3.0,91,0.00,,,0.00,Wunderground v.1.15,2013-03-07 13:05:00,
2013-03-07 07:15:00,10.8,8.7,30.48,East,81,3.0,3.0,91,0.00,,,0.00,Wunderground v.1.15,2013-03-07 13:15:00,
2013-03-07 07:20:00,10.8,8.7,30.48,East,95,3.0,3.0,91,0.00,,,0.00,Wunderground v.1.15,2013-03-07 13:20:00,
2013-03-07 07:30:00,10.9,8.8,30.47,ENE,64,3.0,3.0,91,0.00,,,0.00,Wunderground v.1.15,2013-03-07 13:30:00,
2013-03-07 07:35:00,11.0,8.9,30.48,SE,127,3.0,3.0,91,0.00,,,0.00,Wunderground v.1.15,2013-03-07 13:35:00,
2013-03-07 07:45:00,11.2,9.1,30.48,East,96,3.0,3.0,91,0.00,,,0.00,Wunderground v.1.15,2013-03-07 13:45:00,
2013-03-07 07:50:00,11.4,9.3,30.48,SE,126,3.0,3.0,91,0.00,,,0.00,Wunderground v.1.15,2013-03-07 13:50:00,
2013-03-07 08:00:00,12.0,9.9,30.48,ESE,116,3.0,4.0,91,0.00,,,0.00,Wunderground v.1.15,2013-03-07 14:00:00,
2013-03-07 08:05:00,12.3,10.2,30.49,ESE,104,3.0,4.0,91,0.00,,,0.00,Wunderground v.1.15,2013-03-07 14:05:00,
2013-03-07 08:14:00,12.7,10.6,30.49,SE,135,2.0,3.0,91,0.00,,,0.00,Wunderground v.1.15,2013-03-07 14:14:00,
2013-03-07 08:20:00,13.1,11.0,30.49,ESE,123,2.0,3.0,91,0.00,,,0.00,Wunderground v.1.15,2013-03-07 14:20:00,
2013-03-07 08:25:00,13.5,11.4,30.49,East,94,2.0,3.0,91,0.00,,,0.00,Wunderground v.1.15,2013-03-07 14:25:00,
2013-03-07 08:35:00,14.5,12.4,30.48,SE,133,3.0,4.0,91,0.00,,,0.00,Wunderground v.1.15,2013-03-07 14:35:00,
2013-03-07 08:40:00,14.7,12.6,30.49,SE,127,4.0,4.0,91,0.00,,,0.00,Wunderground v.1.15,2013-03-07 14:40:00,
2013-03-07 08:50:00,14.8,12.6,30.48,SE,133,4.0,10.0,91,0.00,,,0.00,Wunderground v.1.15,2013-03-07 14:50:00,
2013-03-07 08:55:00,15.1,12.7,30.48,SE,130,5.0,10.0,90,0.00,,,0.00,Wunderground v.1.15,2013-03-07 14:55:00,
2013-03-07 09:00:00,15.5,13.1,30.48,SE,129,5.0,5.0,90,0.00,,,0.00,Wunderground v.1.15,2013-03-07 15:00:00,
2013-03-07 09:05:00,16.1,13.9,30.48,East,91,4.0,5.0,91,0.00,,,0.00,Wunderground v.1.15,2013-03-07 15:05:00,
2013-03-07 09:15:00,16.8,14.1,30.48,ENE,75,6.0,6.0,89,0.00,,,0.00,Wunderground v.1.15,2013-03-07 15:15:00,
2013-03-07 09:20:00,17.1,14.4,30.48,SE,125,6.0,6.0,89,0.00,,,0.00,Wunderground v.1.15,2013-03-07 15:20:00,
2013-03-07 09:30:00,17.1,14.2,30.48,SE,145,5.0,5.0,88,0.00,,,0.00,Wunderground v.1.15,2013-03-07 15:30:00,
2013-03-07 09:35:00,17.3,14.4,30.48,SE,126,5.0,5.0,88,0.00,,,0.00,Wunderground v.1.15,2013-03-07 15:35:00,
2013-03-07 09:40:00,17.4,14.2,30.48,ESE,108,5.0,5.0,87,0.00,,,0.00,Wunderground v.1.15,2013-03-07 15:40:00,
2013-03-07 09:50:00,18.5,15.0,30.48,SE,141,4.0,5.0,86,0.00,,,0.00,Wunderground v.1.15,2013-03-07 15:50:00,
2013-03-07 09:55:00,19.0,15.5,30.48,ESE,110,4.0,5.0,86,0.00,,,0.00,Wunderground v.1.15,2013-03-07 15:55:00,
2013-03-07 10:05:00,19.5,15.7,30.48,ESE,116,4.0,4.0,85,0.00,,,0.00,Wunderground v.1.15,2013-03-07 16:05:00,
2013-03-07 10:15:00,19.8,15.7,30.48,ESE,117,6.0,8.0,84,0.00,,,0.00,Wunderground v.1.15,2013-03-07 16:15:00,
2013-03-07 10:25:00,20.2,16.1,30.48,SE,132,5.0,6.0,84,0.00,,,0.00,Wunderground v.1.15,2013-03-07 16:25:00,
2013-03-07 10:30:00,20.7,16.6,30.47,SE,130,4.0,6.0,84,0.00,,,0.00,Wunderground v.1.15,2013-03-07 16:30:00,
2013-03-07 10:35:00,20.9,16.5,30.47,SE,127,4.0,6.0,83,0.00,,,0.00,Wunderground v.1.15,2013-03-07 16:35:00,
2013-03-07 10:45:00,21.2,16.3,30.48,ESE,106,4.0,5.0,81,0.00,,,0.00,Wunderground v.1.15,2013-03-07 16:45:00,
2013-03-07 10:55:00,21.3,16.7,30.48,ESE,120,4.0,5.0,82,0.00,,,0.00,Wunderground v.1.15,2013-03-07 16:55:00,
2013-03-07 11:00:00,21.4,16.8,30.48,SE,135,4.0,4.0,82,0.00,,,0.00,Wunderground v.1.15,2013-03-07 17:00:00,
2013-03-07 11:05:00,21.5,16.6,30.48,SE,126,4.0,4.0,81,0.00,,,0.00,Wunderground v.1.15,2013-03-07 17:05:00,
2013-03-07 11:14:00,21.2,16.3,30.48,SE,129,5.0,6.0,81,0.00,,,0.00,Wunderground v.1.15,2013-03-07 17:14:00,
2013-03-07 11:20:00,21.4,16.8,30.48,ESE,122,5.0,5.0,82,0.00,,,0.00,Wunderground v.1.15,2013-03-07 17:20:00,
2013-03-07 11:25:00,21.4,16.5,30.47,SE,132,5.0,5.0,81,0.00,,,0.00,Wunderground v.1.15,2013-03-07 17:25:00,
2013-03-07 11:30:00,21.0,16.1,30.47,SE,137,6.0,9.0,81,0.00,,,0.00,Wunderground v.1.15,2013-03-07 17:30:00,
2013-03-07 11:40:00,20.9,16.3,30.47,SE,125,7.0,7.0,82,0.00,,,0.00,Wunderground v.1.15,2013-03-07 17:40:00,
2013-03-07 11:50:00,21.0,16.1,30.47,SE,145,7.0,7.0,81,0.00,,,0.00,Wunderground v.1.15,2013-03-07 17:50:00,
2013-03-07 11:55:00,21.1,16.2,30.47,SE,129,6.0,7.0,81,0.00,,,0.00,Wunderground v.1.15,2013-03-07 17:55:00,
2013-03-07 12:00:00,21.0,16.1,30.48,ESE,120,7.0,7.0,81,0.00,,,0.00,Wunderground v.1.15,2013-03-07 18:00:00,
2013-03-07 12:05:00,21.2,16.3,30.47,SE,134,7.0,7.0,81,0.00,,,0.00,Wunderground v.1.15,2013-03-07 18:05:00,
2013-03-07 12:10:00,21.3,16.7,30.48,ESE,119,7.0,7.0,82,0.00,,,0.00,Wunderground v.1.15,2013-03-07 18:10:00,
2013-03-07 12:20:00,21.7,16.5,30.47,SE,140,6.0,6.0,80,0.00,,,0.00,Wunderground v.1.15,2013-03-07 18:20:00,
2013-03-07 12:25:00,21.9,16.7,30.47,SE,128,6.0,6.0,80,0.00,,,0.00,Wunderground v.1.15,2013-03-07 18:25:00,
2013-03-07 12:35:00,22.0,17.3,30.47,SE,129,6.0,6.0,82,0.00,,,0.00,Wunderground v.1.15,2013-03-07 18:35:00,
2013-03-07 12:40:00,22.0,17.1,30.46,SE,130,6.0,6.0,81,0.00,,,0.00,Wunderground v.1.15,2013-03-07 18:40:00,
2013-03-07 12:50:00,22.6,17.6,30.46,SE,131,6.0,6.0,81,0.00,,,0.00,Wunderground v.1.15,2013-03-07 18:50:00,
2013-03-07 13:00:00,23.1,17.8,30.46,SE,127,5.0,5.0,80,0.00,,,0.00,Wunderground v.1.15,2013-03-07 19:00:00,
2013-03-07 13:05:00,23.4,18.1,30.46,SE,125,6.0,7.0,80,0.00,,,0.00,Wunderground v.1.15,2013-03-07 19:05:00,
2013-03-07 13:15:00,24.0,18.7,30.46,ESE,123,6.0,7.0,80,0.00,,,0.00,Wunderground v.1.15,2013-03-07 19:15:00,
2013-03-07 13:20:00,23.9,18.6,30.45,ESE,117,6.0,6.0,80,0.00,,,0.00,Wunderground v.1.15,2013-03-07 19:20:00,
2013-03-07 13:30:00,24.0,18.4,30.44,ESE,110,7.0,12.0,79,0.00,,,0.00,Wunderground v.1.15,2013-03-07 19:30:00,
2013-03-07 13:40:00,24.5,18.6,30.44,SSE,164,8.0,8.0,78,0.00,,,0.00,Wunderground v.1.15,2013-03-07 19:40:00,
2013-03-07 13:45:00,24.8,18.6,30.43,SSE,148,9.0,9.0,77,0.00,,,0.00,Wunderground v.1.15,2013-03-07 19:45:00,
2013-03-07 13:55:00,25.7,19.5,30.43,ESE,112,7.0,8.0,77,0.00,,,0.00,Wunderground v.1.15,2013-03-07 19:55:00,
2013-03-07 14:00:00,26.0,20.1,30.43,ESE,118,7.0,7.0,78,0.00,,,0.00,Wunderground v.1.15,2013-03-07 20:00:00,
2013-03-07 14:05:00,26.8,20.6,30.42,ESE,105,6.0,7.0,77,0.00,,,0.00,Wunderground v.1.15,2013-03-07 20:05:00,
2013-03-07 14:14:00,27.3,20.7,30.42,ESE,114,6.0,7.0,76,0.00,,,0.00,Wunderground v.1.15,2013-03-07 20:14:00,
2013-03-07 14:20:00,27.2,20.3,30.42,ESE,106,6.0,6.0,75,0.00,,,0.00,Wunderground v.1.15,2013-03-07 20:20:00,
2013-03-07 14:25:00,27.3,20.7,30.42,East,86,6.0,6.0,76,0.00,,,0.00,Wunderground v.1.15,2013-03-07 20:25:00,
2013-03-07 14:35:00,27.3,20.7,30.42,ESE,107,7.0,10.0,76,0.00,,,0.00,Wunderground v.1.15,2013-03-07 20:35:00,
2013-03-07 14:40:00,27.5,20.6,30.42,ESE,114,7.0,7.0,75,0.00,,,0.00,Wunderground v.1.15,2013-03-07 20:40:00,
2013-03-07 14:45:00,27.8,20.9,30.41,East,89,7.0,7.0,75,0.00,,,0.00,Wunderground v.1.15,2013-03-07 20:45:00,
2013-03-07 14:50:00,27.8,20.9,30.42,ESE,116,6.0,10.0,75,0.00,,,0.00,Wunderground v.1.15,2013-03-07 20:50:00,
2013-03-07 14:55:00,27.5,20.6,30.41,East,97,7.0,13.0,75,0.00,,,0.00,Wunderground v.1.15,2013-03-07 20:55:00,
2013-03-07 15:00:00,27.5,20.9,30.41,East,85,8.0,8.0,76,0.00,,,0.00,Wunderground v.1.15,2013-03-07 21:00:00,
2013-03-07 15:05:00,27.9,21.3,30.41,ESE,123,6.0,8.0,76,0.00,,,0.00,Wunderground v.1.15,2013-03-07 21:05:00,
2013-03-07 15:15:00,27.7,21.1,30.41,ESE,108,7.0,10.0,76,0.00,,,0.00,Wunderground v.1.15,2013-03-07 21:15:00,
2013-03-07 15:25:00,27.8,21.2,30.42,ENE,75,6.0,8.0,76,0.00,,,0.00,Wunderground v.1.15,2013-03-07 21:25:00,
2013-03-07 15:30:00,27.5,20.6,30.41,East,84,7.0,9.0,75,0.00,,,0.00,Wunderground v.1.15,2013-03-07 21:30:00,
2013-03-07 15:40:00,27.6,20.7,30.41,SE,133,7.0,8.0,75,0.00,,,0.00,Wunderground v.1.15,2013-03-07 21:40:00,
2013-03-07 15:45:00,27.5,20.6,30.41,SSE,151,7.0,8.0,75,0.00,,,0.00,Wunderground v.1.15,2013-03-07 21:45:00,
2013-03-07 15:55:00,27.7,20.8,30.40,ENE,63,7.0,7.0,75,0.00,,,0.00,Wunderground v.1.15,2013-03-07 21:55:00,
2013-03-07 16:05:00,27.8,20.9,30.40,SE,125,7.0,10.0,75,0.00,,,0.00,Wunderground v.1.15,2013-03-07 22:05:00,
2013-03-07 16:15:00,27.7,20.8,30.40,ENE,66,7.0,7.0,75,0.00,,,0.00,Wunderground v.1.15,2013-03-07 22:15:00,
2013-03-07 16:25:00,27.9,20.7,30.39,ESE,122,7.0,11.0,74,0.00,,,0.00,Wunderground v.1.15,2013-03-07 22:25:00,
2013-03-07 16:36:00,27.9,21.0,30.39,SE,140,8.0,8.0,75,0.00,,,0.00,Wunderground v.1.15,2013-03-07 22:36:00,
2013-03-07 16:45:00,27.9,20.7,30.39,SE,145,7.0,11.0,74,0.00,,,0.00,Wunderground v.1.15,2013-03-07 22:45:00,
2013-03-07 16:50:00,27.8,20.9,30.39,ENE,70,8.0,8.0,75,0.00,,,0.00,Wunderground v.1.15,2013-03-07 22:50:00,
2013-03-07 17:00:00,27.6,20.7,30.39,East,89,7.0,7.0,75,0.00,,,0.00,Wunderground v.1.15,2013-03-07 23:00:00,
2013-03-07 17:05:00,27.5,20.6,30.39,East,97,7.0,7.0,75,0.00,,,0.00,Wunderground v.1.15,2013-03-07 23:05:00,
2013-03-07 17:11:00,27.4,20.5,30.39,ESE,114,7.0,7.0,75,0.00,,,0.00,Wunderground v.1.15,2013-03-07 23:11:00,
2013-03-07 17:20:00,27.2,20.3,30.39,ENE,64,7.0,8.0,75,0.00,,,0.00,Wunderground v.1.15,2013-03-07 23:20:00,
2013-03-07 17:30:00,27.0,20.4,30.38,SE,128,6.0,6.0,76,0.00,,,0.00,Wunderground v.1.15,2013-03-07 23:30:00,
2013-03-07 17:35:00,26.9,20.3,30.38,SE,137,6.0,8.0,76,0.00,,,0.00,Wunderground v.1.15,2013-03-07 23:35:00,
2013-03-07 17:45:00,26.7,20.1,30.38,ESE,112,6.0,10.0,76,0.00,,,0.00,Wunderground v.1.15,2013-03-07 23:45:00,
2013-03-07 17:50:00,26.5,20.3,30.38,ENE,70,6.0,6.0,77,0.00,,,0.00,Wunderground v.1.15,2013-03-07 23:50:00,
2013-03-07 18:00:00,26.2,20.3,30.38,ESE,118,6.0,6.0,78,0.00,,,0.00,Wunderground v.1.15,2013-03-08 00:00:00,
2013-03-07 18:05:00,26.1,20.2,30.38,SE,127,6.0,6.0,78,0.00,,,0.00,Wunderground v.1.15,2013-03-08 00:05:00,
2013-03-07 18:15:00,25.9,20.0,30.38,SE,134,6.0,7.0,78,0.00,,,0.00,Wunderground v.1.15,2013-03-08 00:15:00,
2013-03-07 18:25:00,25.7,20.1,30.38,ESE,119,6.0,6.0,79,0.00,,,0.00,Wunderground v.1.15,2013-03-08 00:25:00,
2013-03-07 18:30:00,25.5,19.9,30.38,ESE,114,6.0,7.0,79,0.00,,,0.00,Wunderground v.1.15,2013-03-08 00:30:00,
2013-03-07 18:40:00,25.4,19.8,30.38,SE,131,7.0,11.0,79,0.00,,,0.00,Wunderground v.1.15,2013-03-08 00:40:00,
2013-03-07 18:45:00,25.4,19.8,30.38,SE,135,7.0,11.0,79,0.00,,,0.00,Wunderground v.1.15,2013-03-08 00:45:00,
2013-03-07 18:55:00,25.1,19.8,30.37,SE,137,7.0,7.0,80,0.00,,,0.00,Wunderground v.1.15,2013-03-08 00:55:00,
2013-03-07 19:05:00,24.9,19.6,30.37,ESE,115,7.0,12.0,80,0.00,,,0.00,Wunderground v.1.15,2013-03-08 01:05:00,
2013-03-07 19:15:00,24.6,19.3,30.37,ESE,102,7.0,8.0,80,0.00,,,0.00,Wunderground v.1.15,2013-03-08 01:15:00,
2013-03-07 19:25:00,24.3,19.3,30.38,SE,131,5.0,7.0,81,0.00,,,0.00,Wunderground v.1.15,2013-03-08 01:25:00,
2013-03-07 19:30:00,24.3,19.3,30.38,East,96,6.0,6.0,81,0.00,,,0.00,Wunderground v.1.15,2013-03-08 01:30:00,
2013-03-07 19:40:00,24.3,19.3,30.37,SE,126,7.0,9.0,81,0.00,,,0.00,Wunderground v.1.15,2013-03-08 01:40:00,
2013-03-07 19:50:00,24.5,19.2,30.38,SE,130,8.0,14.0,80,0.00,,,0.00,Wunderground v.1.15,2013-03-08 01:50:00,
2013-03-07 19:55:00,24.7,19.4,30.38,ESE,120,8.0,16.0,80,0.00,,,0.00,Wunderground v.1.15,2013-03-08 01:55:00,
2013-03-07 20:05:00,24.6,19.0,30.38,SE,125,8.0,11.0,79,0.00,,,0.00,Wunderground v.1.15,2013-03-08 02:05:00,
2013-03-07 20:15:00,24.5,18.9,30.38,ESE,115,9.0,10.0,79,0.00,,,0.00,Wunderground v.1.15,2013-03-08 02:15:00,
2013-03-07 20:25:00,24.3,19.0,30.38,SE,133,8.0,9.0,80,0.00,,,0.00,Wunderground v.1.15,2013-03-08 02:25:00,
2013-03-07 20:36:00,24.3,19.0,30.38,ESE,116,7.0,12.0,80,0.00,,,0.00,Wunderground v.1.15,2013-03-08 02:36:00,
2013-03-07 20:45:00,24.2,18.9,30.39,SE,137,7.0,7.0,80,0.00,,,0.00,Wunderground v.1.15,2013-03-08 02:45:00,
2013-03-07 20:55:00,24.0,18.7,30.39,SE,133,7.0,9.0,80,0.00,,,0.00,Wunderground v.1.15,2013-03-08 02:55:00,
2013-03-07 21:00:00,23.8,18.5,30.39,SE,135,6.0,6.0,80,0.00,,,0.00,Wunderground v.1.15,2013-03-08 03:00:00,
2013-03-07 21:05:00,23.6,18.3,30.40,SE,127,5.0,6.0,80,0.00,,,0.00,Wunderground v.1.15,2013-03-08 03:05:00,
2013-03-07 21:15:00,23.0,18.0,30.40,SE,131,2.0,4.0,81,0.00,,,0.00,Wunderground v.1.15,2013-03-08 03:15:00,
2013-03-07 21:20:00,22.6,17.6,30.40,SE,133,2.0,2.0,81,0.00,,,0.00,Wunderground v.1.15,2013-03-08 03:20:00,
2013-03-07 21:30:00,22.2,17.5,30.40,SE,126,2.0,4.0,82,0.00,,,0.00,Wunderground v.1.15,2013-03-08 03:30:00,
2013-03-07 21:40:00,22.1,17.4,30.41,ESE,122,2.0,2.0,82,0.00,,,0.00,Wunderground v.1.15,2013-03-08 03:40:00,
2013-03-07 21:45:00,22.0,17.3,30.41,SE,129,2.0,2.0,82,0.00,,,0.00,Wunderground v.1.15,2013-03-08 03:45:00,
2013-03-07 21:55:00,21.7,17.1,30.42,SSW,196,0.0,1.0,82,0.00,,,0.00,Wunderground v.1.15,2013-03-08 03:55:00,
2013-03-07 22:00:00,21.5,16.9,30.42,South,174,0.0,0.0,82,0.00,,,0.00,Wunderground v.1.15,2013-03-08 04:00:00,
2013-03-07 22:05:00,21.3,16.9,30.42,SE,139,0.0,0.0,83,0.00,,,0.00,Wunderground v.1.15,2013-03-08 04:05:00,
2013-03-07 22:15:00,21.1,16.7,30.41,SE,134,1.0,2.0,83,0.00,,,0.00,Wunderground v.1.15,2013-03-08 04:15:00,
2013-03-07 22:20:00,21.1,16.7,30.41,SE,129,2.0,3.0,83,0.00,,,0.00,Wunderground v.1.15,2013-03-08 04:20:00,
2013-03-07 22:30:00,21.1,17.0,30.41,ESE,120,3.0,4.0,84,0.00,,,0.00,Wunderground v.1.15,2013-03-08 04:30:00,
2013-03-07 22:40:00,20.9,16.8,30.41,SE,128,4.0,4.0,84,0.00,,,0.00,Wunderground v.1.15,2013-03-08 04:40:00,
2013-03-07 22:45:00,20.7,16.6,30.41,SE,129,3.0,4.0,84,0.00,,,0.00,Wunderground v.1.15,2013-03-08 04:45:00,
2013-03-07 22:55:00,20.8,16.7,30.41,ESE,112,5.0,5.0,84,0.00,,,0.00,Wunderground v.1.15,2013-03-08 04:55:00,
2013-03-07 23:00:00,20.8,16.7,30.41,SE,131,5.0,5.0,84,0.00,,,0.00,Wunderground v.1.15,2013-03-08 05:00:00,
2013-03-07 23:05:00,20.9,17.1,30.41,SE,133,5.0,5.0,85,0.00,,,0.00,Wunderground v.1.15,2013-03-08 05:05:00,
2013-03-07 23:15:00,20.7,16.6,30.41,SE,129,4.0,5.0,84,0.00,,,0.00,Wunderground v.1.15,2013-03-08 05:15:00,
2013-03-07 23:25:00,20.4,16.6,30.41,SE,134,5.0,5.0,85,0.00,,,0.00,Wunderground v.1.15,2013-03-08 05:25:00,
2013-03-07 23:34:00,20.1,16.3,30.40,SE,137,5.0,5.0,85,0.00,,,0.00,Wunderground v.1.15,2013-03-08 05:34:00,
2013-03-07 23:40:00,20.0,16.2,30.40,SE,131,5.0,8.0,85,0.00,,,0.00,Wunderground v.1.15,2013-03-08 05:40:00,
2013-03-07 23:50:00,19.8,16.3,30.40,SE,130,5.0,5.0,86,0.00,,,0.00,Wunderground v.1.15,2013-03-08 05:50:00,